createdAt,value
2023-03-06T00:00:45.810Z,97781.34
2023-03-06T00:03:14.308Z,97776.31
2023-03-06T00:05:42.810Z,97778.81
2023-03-06T00:08:11.677Z,97773.72
2023-03-06T00:10:42.307Z,97765.34
2023-03-06T00:13:15.256Z,97772.09
2023-03-06T00:15:44.212Z,97773.03
2023-03-06T00:18:12.944Z,97768.84
2023-03-06T00:20:43.221Z,97774.75
2023-03-06T00:23:12.616Z,97772.22
2023-03-06T00:25:45.856Z,97778.97
2023-03-06T00:28:17.923Z,97781.53
2023-03-06T00:30:47.681Z,97777.38
2023-03-06T00:33:16.519Z,97774.63
2023-03-06T00:35:45.165Z,97780.56
2023-03-06T00:38:13.922Z,97774.63
2023-03-06T00:40:42.402Z,97779.00
2023-03-06T00:43:12.308Z,97779.81
2023-03-06T00:45:41.137Z,97781.47
2023-03-06T00:48:10.303Z,97779.81
2023-03-06T00:50:41.651Z,97778.16
2023-03-06T00:53:11.200Z,97781.53
2023-03-06T00:55:39.839Z,97778.97
2023-03-06T00:58:08.575Z,97777.22
2023-03-06T01:00:40.924Z,97775.44
2023-03-06T01:03:09.693Z,97782.22
2023-03-06T01:05:38.933Z,97782.25
2023-03-06T01:08:08.886Z,97771.25
2023-03-06T01:10:40.175Z,97775.66
2023-03-06T01:13:09.783Z,97780.81
2023-03-06T01:15:39.576Z,97780.66
2023-03-06T01:18:08.295Z,97778.06
2023-03-06T01:20:38.419Z,97775.47
2023-03-06T01:23:07.074Z,97768.66
2023-03-06T01:25:35.483Z,97776.31
2023-03-06T01:28:04.071Z,97774.56
2023-03-06T01:30:32.501Z,97779.72
2023-03-06T01:33:05.005Z,97778.84
2023-03-06T01:35:33.617Z,97778.81
2023-03-06T01:38:01.968Z,97782.22
2023-03-06T01:40:33.034Z,97781.41
2023-03-06T01:43:10.763Z,97777.16
2023-03-06T01:46:23.131Z,97784.75
2023-03-06T01:48:55.652Z,97783.91
2023-03-06T01:51:25.783Z,97775.34
2023-03-06T01:53:55.171Z,97780.41
2023-03-06T01:56:24.038Z,97784.69
2023-03-06T01:58:53.149Z,97783.84
2023-03-06T02:01:22.012Z,97782.09
2023-03-06T02:03:54.957Z,97788.84
2023-03-06T02:06:24.590Z,97792.31
2023-03-06T02:08:54.440Z,97791.44
2023-03-06T02:11:25.030Z,97789.72
2023-03-06T02:13:55.611Z,97764.16
2023-03-06T02:16:27.420Z,97789.69
2023-03-06T02:18:58.203Z,97784.59
2023-03-06T02:21:29.377Z,97794.72
2023-03-06T02:24:18.211Z,97796.47
2023-03-06T02:26:48.626Z,97793.91
2023-03-06T02:29:22.830Z,97801.59
2023-03-06T02:31:51.643Z,97795.63
2023-03-06T02:34:52.120Z,97790.47
2023-03-06T02:37:21.236Z,97788.84
2023-03-06T02:39:54.456Z,97791.22
2023-03-06T02:42:32.014Z,97798.03
2023-03-06T02:45:02.630Z,97789.53
2023-03-06T02:47:32.827Z,97785.97
2023-03-06T02:50:01.774Z,97788.53
2023-03-06T02:52:31.914Z,97784.34
2023-03-06T02:55:00.858Z,97788.56
2023-03-06T02:57:30.582Z,97791.16
2023-03-06T03:00:00.092Z,97794.53
2023-03-06T03:02:28.770Z,97797.09
2023-03-06T03:04:57.528Z,97782.59
2023-03-06T03:07:26.741Z,97789.53
2023-03-06T03:09:55.345Z,97802.19
2023-03-06T03:12:24.032Z,97802.16
2023-03-06T03:14:54.027Z,97786.91
2023-03-06T03:17:22.620Z,97791.22
2023-03-06T03:19:51.386Z,97799.53
2023-03-06T03:22:20.898Z,97797.81
2023-03-06T03:24:49.663Z,97794.41
2023-03-06T03:27:18.079Z,97797.06
2023-03-06T03:29:46.832Z,97798.63
2023-03-06T03:32:17.049Z,97791.78
2023-03-06T03:34:48.756Z,97798.56
2023-03-06T03:37:18.798Z,97794.31
2023-03-06T03:39:47.258Z,97802.81
2023-03-06T03:42:16.008Z,97806.91
2023-03-06T03:44:45.694Z,97808.69
2023-03-06T03:47:14.171Z,97803.69
2023-03-06T03:49:44.193Z,97811.25
2023-03-06T03:52:12.746Z,97805.34
2023-03-06T03:54:42.414Z,97804.63
2023-03-06T03:57:11.146Z,97802.97
2023-03-06T03:59:44.084Z,97807.97
2023-03-06T04:02:26.277Z,97807.22
2023-03-06T04:05:05.681Z,97802.16
2023-03-06T04:07:34.707Z,97804.88
2023-03-06T04:10:03.052Z,97801.47
2023-03-06T04:12:32.488Z,97803.03
2023-03-06T04:15:01.024Z,97800.56
2023-03-06T04:17:34.327Z,97803.09
2023-03-06T04:20:06.900Z,97804.81
2023-03-06T04:22:38.169Z,97810.78
2023-03-06T04:25:09.637Z,97803.94
2023-03-06T04:27:39.026Z,97809.91
2023-03-06T04:30:10.035Z,97804.75
2023-03-06T04:32:38.675Z,97807.38
2023-03-06T04:35:09.639Z,97804.00
2023-03-06T04:37:46.898Z,97791.22
2023-03-06T04:40:19.969Z,97796.38
2023-03-06T04:42:55.558Z,97795.41
2023-03-06T04:45:24.845Z,97804.81
2023-03-06T04:47:54.024Z,97806.59
2023-03-06T04:50:25.871Z,97806.47
2023-03-06T04:52:54.668Z,97801.38
2023-03-06T04:55:24.097Z,97799.81
2023-03-06T04:57:52.931Z,97808.34
2023-03-06T05:00:23.074Z,97804.22
2023-03-06T05:02:52.688Z,97807.56
2023-03-06T05:05:21.336Z,97799.13
2023-03-06T05:07:51.201Z,97822.88
2023-03-06T05:10:20.331Z,97806.03
2023-03-06T05:12:49.181Z,97817.91
2023-03-06T05:15:17.994Z,97817.97
2023-03-06T05:17:50.413Z,97819.72
2023-03-06T05:20:19.521Z,97819.50
2023-03-06T05:22:49.287Z,97819.72
2023-03-06T05:25:19.392Z,97818.81
2023-03-06T05:27:50.932Z,97817.78
2023-03-06T05:30:21.313Z,97818.66
2023-03-06T05:32:49.748Z,97817.09
2023-03-06T05:35:20.251Z,97816.25
2023-03-06T05:37:49.254Z,97822.34
2023-03-06T05:40:20.270Z,97827.53
2023-03-06T05:42:48.965Z,97825.91
2023-03-06T05:45:17.963Z,97824.31
2023-03-06T05:47:46.657Z,97828.66
2023-03-06T05:50:15.663Z,97826.97
2023-03-06T05:52:44.211Z,97839.72
2023-03-06T05:55:13.863Z,97833.91
2023-03-06T05:57:43.912Z,97829.75
2023-03-06T06:00:13.885Z,97827.38
2023-03-06T06:02:43.030Z,97829.88
2023-03-06T06:05:14.130Z,97834.09
2023-03-06T06:07:43.032Z,97831.41
2023-03-06T06:10:13.020Z,97833.94
2023-03-06T06:12:44.740Z,97839.84
2023-03-06T06:15:14.759Z,97834.78
2023-03-06T06:17:43.315Z,97838.38
2023-03-06T06:20:13.757Z,97840.78
2023-03-06T06:22:42.374Z,97842.69
2023-03-06T06:25:11.238Z,97833.25
2023-03-06T06:27:40.033Z,97824.03
2023-03-06T06:30:12.998Z,97830.81
2023-03-06T06:32:41.651Z,97824.03
2023-03-06T06:35:10.997Z,97823.88
2023-03-06T06:37:39.523Z,97842.53
2023-03-06T06:40:09.524Z,97843.25
2023-03-06T06:42:40.236Z,97833.94
2023-03-06T06:45:12.880Z,97834.91
2023-03-06T06:47:44.109Z,97843.50
2023-03-06T06:50:14.842Z,97839.25
2023-03-06T06:52:43.431Z,97850.25
2023-03-06T06:55:13.771Z,97851.94
2023-03-06T06:57:43.052Z,97852.03
2023-03-06T07:00:15.750Z,97854.53
2023-03-06T07:02:49.503Z,97855.44
2023-03-06T07:05:20.986Z,97853.81
2023-03-06T07:07:51.517Z,97846.22
2023-03-06T07:10:21.190Z,97843.75
2023-03-06T07:12:49.955Z,97844.59
2023-03-06T07:15:20.174Z,97847.91
2023-03-06T07:17:50.175Z,97851.28
2023-03-06T07:20:25.718Z,97854.56
2023-03-06T07:22:54.431Z,97844.31
2023-03-06T07:25:26.031Z,97847.78
2023-03-06T07:27:56.663Z,97845.25
2023-03-06T07:30:26.844Z,97854.59
2023-03-06T07:32:56.286Z,97858.72
2023-03-06T07:35:27.960Z,97861.84
2023-03-06T07:37:56.429Z,97866.09
2023-03-06T07:40:25.421Z,97867.84
2023-03-06T07:42:57.748Z,97863.63
2023-03-06T07:45:39.978Z,97864.59
2023-03-06T07:48:08.764Z,97874.00
2023-03-06T07:50:41.440Z,97878.19
2023-03-06T07:53:10.882Z,97870.63
2023-03-06T07:55:42.527Z,97874.06
2023-03-06T07:58:11.486Z,97878.38
2023-03-06T08:00:42.306Z,97874.13
2023-03-06T08:03:11.386Z,97883.41
2023-03-06T08:05:40.166Z,97879.94
2023-03-06T08:08:11.829Z,97883.19
2023-03-06T08:10:40.540Z,97879.91
2023-03-06T08:13:08.913Z,97884.88
2023-03-06T08:15:38.371Z,97888.38
2023-03-06T08:18:08.405Z,97882.38
2023-03-06T08:20:37.167Z,97889.97
2023-03-06T08:23:05.524Z,97887.50
2023-03-06T08:25:34.067Z,97885.84
2023-03-06T08:28:02.810Z,97887.44
2023-03-06T08:30:32.019Z,97885.03
2023-03-06T08:33:01.474Z,97886.63
2023-03-06T08:35:31.774Z,97876.56
2023-03-06T08:38:00.440Z,97885.97
2023-03-06T08:40:30.613Z,97887.72
2023-03-06T08:42:59.357Z,97885.28
2023-03-06T08:45:27.907Z,97882.69
2023-03-06T08:47:56.593Z,97895.41
2023-03-06T08:50:25.109Z,97875.06
2023-03-06T08:52:54.889Z,97876.81
2023-03-06T08:55:23.828Z,97886.16
2023-03-06T08:57:57.949Z,97886.09
2023-03-06T09:00:27.343Z,97891.31
2023-03-06T09:02:55.727Z,97890.34
2023-03-06T09:05:24.140Z,97888.63
2023-03-06T09:07:55.185Z,97886.97
2023-03-06T09:10:25.763Z,97888.63
2023-03-06T09:12:55.439Z,97890.31
2023-03-06T09:15:25.064Z,97891.94
2023-03-06T09:17:54.296Z,97892.97
2023-03-06T09:20:23.933Z,97892.16
2023-03-06T09:22:52.349Z,97895.63
2023-03-06T09:25:23.398Z,97899.00
2023-03-06T09:28:08.727Z,97899.84
2023-03-06T09:30:39.034Z,97899.81
2023-03-06T09:33:10.199Z,97901.50
2023-03-06T09:35:43.717Z,97906.63
2023-03-06T09:38:12.132Z,97905.78
2023-03-06T09:40:51.094Z,97902.38
2023-03-06T09:43:22.919Z,97912.63
2023-03-06T09:45:51.852Z,97914.34
2023-03-06T09:48:24.222Z,97918.53
2023-03-06T09:50:53.700Z,97920.28
2023-03-06T09:53:39.330Z,97921.97
2023-03-06T09:56:14.312Z,97918.56
2023-03-06T09:58:45.664Z,97914.28
2023-03-06T10:01:21.083Z,97917.69
2023-03-06T10:03:52.434Z,97925.38
2023-03-06T10:06:24.994Z,97919.41
2023-03-06T10:08:59.817Z,97913.44
2023-03-06T10:11:38.649Z,97917.72
2023-03-06T10:14:17.718Z,97917.72
2023-03-06T10:16:47.114Z,97927.84
2023-03-06T10:19:17.481Z,97913.34
2023-03-06T10:21:51.910Z,97925.13
2023-03-06T10:24:36.626Z,97932.59
2023-03-06T10:27:18.761Z,97939.41
2023-03-06T10:30:02.585Z,97933.59
2023-03-06T10:32:48.827Z,97935.97
2023-03-06T10:35:20.391Z,97931.72
2023-03-06T10:37:49.927Z,97928.47
2023-03-06T10:40:20.553Z,97925.13
2023-03-06T10:42:58.707Z,97919.16
2023-03-06T10:45:48.541Z,97919.06
2023-03-06T10:48:21.208Z,97920.81
2023-03-06T10:50:50.185Z,97931.94
2023-03-06T10:53:24.136Z,97931.13
2023-03-06T10:55:54.931Z,97931.09
2023-03-06T10:58:27.674Z,97929.56
2023-03-06T11:01:08.134Z,97924.50
2023-03-06T11:03:40.131Z,97928.78
2023-03-06T11:06:13.177Z,97933.00
2023-03-06T11:08:44.050Z,97930.41
2023-03-06T11:11:15.915Z,97920.25
2023-03-06T11:13:58.458Z,97938.06
2023-03-06T11:16:30.692Z,97935.56
2023-03-06T11:19:01.444Z,97927.06
2023-03-06T11:21:31.908Z,97926.22
2023-03-06T11:24:05.421Z,97929.66
2023-03-06T11:26:37.975Z,97926.22
2023-03-06T11:29:20.829Z,97925.38
2023-03-06T11:31:53.330Z,97926.25
2023-03-06T11:34:28.634Z,97927.91
2023-03-06T11:37:00.051Z,97938.09
2023-03-06T11:39:36.341Z,97933.88
2023-03-06T11:42:11.225Z,97931.31
2023-03-06T11:44:45.352Z,97930.47
2023-03-06T11:47:19.015Z,97936.28
2023-03-06T11:49:51.917Z,97937.94
2023-03-06T11:52:25.320Z,97951.59
2023-03-06T11:54:56.506Z,97947.41
2023-03-06T11:57:27.476Z,97946.56
2023-03-06T12:00:21.882Z,97946.63
2023-03-06T12:03:09.411Z,97939.81
2023-03-06T12:05:40.848Z,97936.44
2023-03-06T12:08:28.900Z,97944.09
2023-03-06T12:11:01.547Z,97942.41
2023-03-06T12:13:40.610Z,97935.59
2023-03-06T12:16:25.012Z,97932.19
2023-03-06T12:19:00.734Z,97948.28
2023-03-06T12:21:35.181Z,97940.63
2023-03-06T12:24:23.569Z,97931.25
2023-03-06T12:27:10.248Z,97945.75
2023-03-06T12:30:07.572Z,97935.44
2023-03-06T12:32:42.778Z,97954.94
2023-03-06T12:35:42.813Z,97951.53
2023-03-06T12:38:25.941Z,97964.25
2023-03-06T12:41:08.004Z,97961.84
2023-03-06T12:43:56.112Z,97951.59
2023-03-06T12:46:26.371Z,97960.13
2023-03-06T12:49:03.693Z,97961.91
2023-03-06T12:51:35.397Z,97961.88
2023-03-06T12:54:04.509Z,97969.47
2023-03-06T12:56:33.432Z,97967.72
2023-03-06T12:59:02.728Z,97970.22
2023-03-06T13:01:52.542Z,97974.38
2023-03-06T13:04:46.385Z,97974.41
2023-03-06T13:07:34.438Z,97967.66
2023-03-06T13:10:17.386Z,97978.59
2023-03-06T13:12:55.833Z,97980.34
2023-03-06T13:15:45.959Z,97969.22
2023-03-06T13:18:57.079Z,97976.91
2023-03-06T13:21:52.922Z,97976.91
2023-03-06T13:24:24.035Z,97976.13
2023-03-06T13:27:09.057Z,97979.53
2023-03-06T13:29:53.385Z,97991.41
2023-03-06T13:32:31.804Z,97978.69
2023-03-06T13:35:00.336Z,97989.69
2023-03-06T13:37:50.820Z,97992.31
2023-03-06T13:40:31.412Z,97991.41
2023-03-06T13:43:23.640Z,97995.63
2023-03-06T13:45:52.797Z,97996.53
2023-03-06T13:48:47.669Z,97999.88
2023-03-06T13:51:24.768Z,97993.09
2023-03-06T13:54:18.870Z,97995.50
2023-03-06T13:56:58.055Z,97992.09
2023-03-06T13:59:42.936Z,98002.28
2023-03-06T14:02:29.863Z,97995.38
2023-03-06T14:04:59.406Z,98001.31
2023-03-06T14:07:29.479Z,98009.72
2023-03-06T14:10:16.823Z,98011.38
2023-03-06T14:13:01.893Z,98017.34
2023-03-06T14:15:49.604Z,98010.56
2023-03-06T14:18:24.967Z,98014.72
2023-03-06T14:20:58.294Z,98023.97
2023-03-06T14:23:32.385Z,98020.47
2023-03-06T14:26:15.288Z,98024.69
2023-03-06T14:28:46.359Z,98024.63
2023-03-06T14:31:18.147Z,98029.72
2023-03-06T14:33:52.608Z,98037.31
2023-03-06T14:36:25.898Z,98028.75
2023-03-06T14:38:57.201Z,98032.91
2023-03-06T14:41:31.392Z,98033.75
2023-03-06T14:44:19.505Z,98042.16
2023-03-06T14:46:49.569Z,98035.34
2023-03-06T14:49:21.040Z,98037.00
2023-03-06T14:51:51.149Z,98040.34
2023-03-06T14:54:21.408Z,98042.09
2023-03-06T14:56:57.620Z,98047.91
2023-03-06T14:59:28.657Z,98055.56
2023-03-06T15:01:59.905Z,98058.88
2023-03-06T15:04:32.606Z,98048.66
2023-03-06T15:07:01.391Z,98058.75
2023-03-06T15:09:33.451Z,98061.94
2023-03-06T15:12:05.405Z,98073.91
2023-03-06T15:14:38.929Z,98085.22
2023-03-06T15:17:23.536Z,98091.03
2023-03-06T15:19:54.351Z,98100.84
2023-03-06T15:22:32.558Z,98099.88
2023-03-06T15:25:22.622Z,98092.91
2023-03-06T15:27:54.233Z,98101.88
2023-03-06T15:30:28.877Z,98109.28
2023-03-06T15:33:24.403Z,98107.53
2023-03-06T15:35:55.147Z,98115.84
2023-03-06T15:38:31.727Z,98117.59
2023-03-06T15:41:01.809Z,98126.03
2023-03-06T15:43:41.435Z,98129.56
2023-03-06T15:46:10.149Z,98135.50
2023-03-06T15:48:38.894Z,98129.59
2023-03-06T15:51:08.439Z,98130.31
2023-03-06T15:53:40.136Z,98123.50
2023-03-06T15:56:10.611Z,98131.91
2023-03-06T15:58:41.383Z,98136.09
2023-03-06T16:01:14.767Z,98135.03
2023-03-06T16:03:43.527Z,98147.69
2023-03-06T16:06:18.073Z,98145.06
2023-03-06T16:08:46.925Z,98153.59
2023-03-06T16:11:19.016Z,98160.31
2023-03-06T16:13:49.140Z,98158.78
2023-03-06T16:16:23.038Z,98159.59
2023-03-06T16:18:51.624Z,98163.66
2023-03-06T16:21:20.014Z,98168.03
2023-03-06T16:23:50.683Z,98173.06
2023-03-06T16:26:21.141Z,98167.75
2023-03-06T16:28:51.313Z,98179.88
2023-03-06T16:31:19.699Z,98180.72
2023-03-06T16:33:48.704Z,98183.16
2023-03-06T16:36:21.013Z,98181.41
2023-03-06T16:38:50.105Z,98190.75
2023-03-06T16:41:19.206Z,98187.34
2023-03-06T16:43:49.233Z,98188.88
2023-03-06T16:46:20.156Z,98188.72
2023-03-06T16:48:48.904Z,98193.97
2023-03-06T16:51:21.038Z,98191.38
2023-03-06T16:53:50.923Z,98188.13
2023-03-06T16:56:20.732Z,98189.59
2023-03-06T16:58:50.069Z,98199.91
2023-03-06T17:01:20.891Z,98198.06
2023-03-06T17:03:49.650Z,98197.19
2023-03-06T17:06:19.215Z,98206.59
2023-03-06T17:08:49.559Z,98205.09
2023-03-06T17:11:20.492Z,98208.31
2023-03-06T17:13:49.413Z,98210.34
2023-03-06T17:16:19.189Z,98215.38
2023-03-06T17:18:49.422Z,98211.84
2023-03-06T17:21:18.268Z,98219.34
2023-03-06T17:23:47.032Z,98220.13
2023-03-06T17:26:19.312Z,98222.66
2023-03-06T17:28:48.701Z,98229.34
2023-03-06T17:31:20.953Z,98235.16
2023-03-06T17:33:51.458Z,98237.47
2023-03-06T17:36:20.480Z,98233.19
2023-03-06T17:38:51.597Z,98234.97
2023-03-06T17:41:24.422Z,98242.59
2023-03-06T17:43:58.466Z,98244.09
2023-03-06T17:46:28.925Z,98246.81
2023-03-06T17:48:57.702Z,98239.78
2023-03-06T17:51:26.185Z,98249.91
2023-03-06T17:53:55.743Z,98253.25
2023-03-06T17:56:24.667Z,98253.34
2023-03-06T17:58:53.673Z,98256.56
2023-03-06T18:04:15.205Z,98254.00
2023-03-06T18:06:43.879Z,98262.28
2023-03-06T18:09:12.384Z,98258.00
2023-03-06T18:11:41.634Z,98258.72
2023-03-06T18:14:10.564Z,98262.16
2023-03-06T18:16:39.056Z,98269.72
2023-03-06T18:19:08.195Z,98269.59
2023-03-06T18:21:38.386Z,98271.31
2023-03-06T18:24:07.840Z,98277.06
2023-03-06T18:26:36.677Z,98273.81
2023-03-06T18:29:05.753Z,98265.06
2023-03-06T18:31:36.154Z,98271.03
2023-03-06T18:34:06.626Z,98269.97
2023-03-06T18:36:35.530Z,98271.88
2023-03-06T18:39:08.961Z,98271.56
2023-03-06T18:41:38.466Z,98272.34
2023-03-06T18:44:07.175Z,98278.97
2023-03-06T18:46:38.108Z,98277.19
2023-03-06T18:49:06.833Z,98282.50
2023-03-06T18:51:38.020Z,98277.28
2023-03-06T18:54:09.806Z,98286.69
2023-03-06T18:56:39.963Z,98286.06
2023-03-06T18:59:08.976Z,98282.59
2023-03-06T19:01:39.733Z,98279.44
2023-03-06T19:04:08.519Z,98287.03
2023-03-06T19:06:38.611Z,98284.34
2023-03-06T19:09:09.480Z,98289.16
2023-03-06T19:11:38.250Z,98290.47
2023-03-06T19:14:08.950Z,98298.63
2023-03-06T19:16:37.755Z,98290.34
2023-03-06T19:19:06.296Z,98301.31
2023-03-06T19:21:34.872Z,98291.28
2023-03-06T19:24:03.404Z,98289.91
2023-03-06T19:26:33.266Z,98299.69
2023-03-06T19:29:01.761Z,98298.03
2023-03-06T19:31:30.730Z,98297.84
2023-03-06T19:33:59.495Z,98297.66
2023-03-06T19:36:33.685Z,98298.44
2023-03-06T19:39:03.521Z,98299.25
2023-03-06T19:41:33.697Z,98305.06
2023-03-06T19:44:05.078Z,98302.50
2023-03-06T19:46:34.802Z,98303.34
2023-03-06T19:49:05.771Z,98305.22
2023-03-06T19:51:34.404Z,98305.22
2023-03-06T19:54:04.219Z,98308.66
2023-03-06T19:56:34.797Z,98309.38
2023-03-06T19:59:03.269Z,98317.09
2023-03-06T20:01:31.930Z,98315.38
2023-03-06T20:04:00.813Z,98318.56
2023-03-06T20:06:33.718Z,98315.22
2023-03-06T20:09:02.897Z,98316.28
2023-03-06T20:11:33.238Z,98314.56
2023-03-06T20:14:03.724Z,98310.59
2023-03-06T20:16:32.923Z,98312.56
2023-03-06T20:19:02.276Z,98310.69
2023-03-06T20:21:32.661Z,98303.09
2023-03-06T20:24:01.407Z,98308.19
2023-03-06T20:26:32.073Z,98304.53
2023-03-06T20:29:04.091Z,98309.66
2023-03-06T20:31:32.567Z,98307.91
2023-03-06T20:34:01.871Z,98308.03
2023-03-06T20:36:32.075Z,98306.28
2023-03-06T20:39:02.101Z,98318.97
2023-03-06T20:41:31.684Z,98316.72
2023-03-06T20:44:02.592Z,98313.13
2023-03-06T20:46:31.699Z,98316.56
2023-03-06T20:49:00.283Z,98305.50
2023-03-06T20:51:31.735Z,98313.19
2023-03-06T20:54:01.939Z,98313.22
2023-03-06T20:56:32.180Z,98313.13
2023-03-06T20:59:03.228Z,98317.41
2023-03-06T21:01:33.323Z,98313.94
2023-03-06T21:04:02.460Z,98312.31
2023-03-06T21:06:31.156Z,98312.31
2023-03-06T21:08:59.952Z,98319.13
2023-03-06T21:11:29.303Z,98311.69
2023-03-06T21:13:58.253Z,98308.44
2023-03-06T21:16:29.053Z,98302.53
2023-03-06T21:18:59.093Z,98311.03
2023-03-06T21:21:30.054Z,98310.09
2023-03-06T21:23:58.985Z,98316.09
2023-03-06T21:26:34.589Z,98316.84
2023-03-06T21:29:03.914Z,98314.34
2023-03-06T21:31:34.639Z,98318.53
2023-03-06T21:34:05.239Z,98321.19
2023-03-06T21:36:34.368Z,98322.81
2023-03-06T21:39:06.287Z,98324.63
2023-03-06T21:41:35.763Z,98311.75
2023-03-06T21:44:06.787Z,98316.88
2023-03-06T21:46:39.278Z,98327.03
2023-03-06T21:49:07.851Z,98320.22
2023-03-06T21:51:36.221Z,98321.84
2023-03-06T21:54:05.117Z,98321.00
2023-03-06T21:56:33.815Z,98334.63
2023-03-06T21:59:02.727Z,98327.03
2023-03-06T22:01:31.637Z,98328.75
2023-03-06T22:04:01.777Z,98330.50
2023-03-06T22:06:34.278Z,98323.72
2023-03-06T22:09:04.690Z,98319.63
2023-03-06T22:11:37.013Z,98322.09
2023-03-06T22:14:05.850Z,98323.03
2023-03-06T22:16:34.843Z,98326.44
2023-03-06T22:19:05.340Z,98322.22
2023-03-06T22:21:35.281Z,98320.78
2023-03-06T22:24:04.647Z,98313.91
2023-03-06T22:26:33.364Z,98315.50
2023-03-06T22:29:01.888Z,98315.69
2023-03-06T22:31:31.947Z,98308.75
2023-03-06T22:34:01.758Z,98308.91
2023-03-06T22:36:34.763Z,98308.84
2023-03-06T22:39:04.314Z,98319.19
2023-03-06T22:41:33.038Z,98311.75
2023-03-06T22:44:03.160Z,98311.69
2023-03-06T22:46:32.369Z,98316.78
2023-03-06T22:49:02.106Z,98316.84
2023-03-06T22:51:37.656Z,98317.53
2023-03-06T22:54:08.006Z,98320.97
2023-03-06T22:56:36.550Z,98327.78
2023-03-06T22:59:05.422Z,98313.25
2023-03-06T23:01:35.561Z,98319.06
2023-03-06T23:04:08.590Z,98311.41
2023-03-06T23:06:40.703Z,98315.81
2023-03-06T23:09:13.156Z,98309.88
2023-03-06T23:12:00.485Z,98295.75
2023-03-06T23:14:49.868Z,98303.22
2023-03-06T23:17:37.983Z,98307.53
2023-03-06T23:20:24.896Z,98303.91
2023-03-06T23:23:13.812Z,98306.50
2023-03-06T23:25:42.367Z,98301.44
2023-03-06T23:28:11.174Z,98302.63
2023-03-06T23:30:41.145Z,98306.84
2023-03-06T23:33:10.299Z,98310.03
2023-03-06T23:35:40.041Z,98298.19
2023-03-06T23:38:08.766Z,98306.09
2023-03-06T23:40:41.147Z,98311.63
2023-03-06T23:43:09.762Z,98310.97
2023-03-06T23:45:40.895Z,98303.16
2023-03-06T23:48:09.501Z,98306.50
2023-03-06T23:50:41.201Z,98304.69
2023-03-06T23:53:11.144Z,98300.22
2023-03-06T23:55:43.612Z,98294.34
2023-03-06T23:58:12.592Z,98298.56
